^^
Station Historical Data
Daily Summary for February 7, 2018 Units:  Both    English   Metric
« Previous Day
Next Day »
Daily Weekly Monthly Yearly Custom
  High: Low: Average:
Temperature: TemperatureF °F /  -17.8 °C 63.7 °F /  17.6 °C 75.5 °F /  24.2 °C
Dew Point: DewpointF °F /  -17.8 °C 50.0 °F /  10 °C 51.6 °F /  10.9 °C
Humidity: Humidity% 36% 43%
Wind Speed: WindSpeedMPHmph /  0km/h - -2.8mph /  -4.5km/h
Wind Gust: WindSpeedGustMPHmph /  0km/h - -
Wind- - ENE
Pressure: PressureIn in /  0 hPa 29.52 in /  999.5 hPa -
Precipitation: 0.00 in /  0 mm    
Historical Graphs
 
 
Tabular Data for February 7, 2018
Time Temperature Dew Point Pressure Wind Wind Speed Wind Gust Humidity Rainfall Rate (Hourly) solar Conditions
TemperatureF °F /  -17.8 °C DewpointF °F /  -17.8 °C PressureInin /  0hPa Calm     Humidity% HourlyPrecipInin /  0mm SoftwareType W/m2 Conditions
08:34 63.7 °F /  17.6 °C 50.0 °F /  10 °C 29.65in /  1003.9hPa North -999.9mph /  -1609.1km/h -999.0mph /  -1607.7km/h 61% 0.00in /  0mm meteobridge W/m2
08:40 63.9 °F /  17.7 °C 50.2 °F /  10.1 °C 29.65in /  1003.9hPa NNE 8.1mph /  13km/h 21.0mph /  33.8km/h 61% 0.00in /  0mm meteobridge W/m2
08:46 64.4 °F /  18 °C 50.2 °F /  10.1 °C 29.66in /  1004.3hPa North 16.1mph /  25.9km/h 18.0mph /  29km/h 60% 0.00in /  0mm meteobridge W/m2
08:52 64.6 °F /  18.1 °C 50.4 °F /  10.2 °C 29.66in /  1004.3hPa NE 12.1mph /  19.5km/h 17.0mph /  27.4km/h 60% 0.00in /  0mm meteobridge W/m2
08:58 64.9 °F /  18.3 °C 50.2 °F /  10.1 °C 29.66in /  1004.3hPa North 14.1mph /  22.7km/h 16.0mph /  25.7km/h 59% 0.00in /  0mm meteobridge W/m2
09:04 65.5 °F /  18.6 °C 50.4 °F /  10.2 °C 29.66in /  1004.3hPa NNE 15.0mph /  24.1km/h 16.0mph /  25.7km/h 58% 0.00in /  0mm meteobridge W/m2
09:10 65.7 °F /  18.7 °C 50.0 °F /  10 °C 29.66in /  1004.3hPa North 11.0mph /  17.7km/h 17.0mph /  27.4km/h 57% 0.00in /  0mm meteobridge W/m2
09:16 66.4 °F /  19.1 °C 50.7 °F /  10.4 °C 29.65in /  1003.9hPa NNE 8.9mph /  14.3km/h 15.0mph /  24.1km/h 57% 0.00in /  0mm meteobridge W/m2
09:22 66.9 °F /  19.4 °C 50.7 °F /  10.4 °C 29.65in /  1003.9hPa NNE 12.1mph /  19.5km/h 16.0mph /  25.7km/h 56% 0.00in /  0mm meteobridge W/m2
09:28 67.5 °F /  19.7 °C 50.7 °F /  10.4 °C 29.66in /  1004.3hPa NNE 10.1mph /  16.3km/h 16.0mph /  25.7km/h 55% 0.00in /  0mm meteobridge W/m2
09:35 67.8 °F /  19.9 °C 51.1 °F /  10.6 °C 29.66in /  1004.3hPa NNE 6.9mph /  11.1km/h 14.0mph /  22.5km/h 55% 0.00in /  0mm meteobridge W/m2
09:41 68.5 °F /  20.3 °C 51.3 °F /  10.7 °C 29.66in /  1004.3hPa North 13.0mph /  20.9km/h 16.0mph /  25.7km/h 54% 0.00in /  0mm meteobridge W/m2
09:47 68.7 °F /  20.4 °C 50.9 °F /  10.5 °C 29.66in /  1004.3hPa North 6.9mph /  11.1km/h 15.0mph /  24.1km/h 53% 0.00in /  0mm meteobridge W/m2
09:53 69.3 °F /  20.7 °C 51.4 °F /  10.8 °C 29.66in /  1004.3hPa North 4.0mph /  6.4km/h 15.0mph /  24.1km/h 53% 0.00in /  0mm meteobridge W/m2
09:59 70.0 °F /  21.1 °C 51.6 °F /  10.9 °C 29.66in /  1004.3hPa NE 10.1mph /  16.3km/h 17.0mph /  27.4km/h 52% 0.00in /  0mm meteobridge W/m2
10:05 70.7 °F /  21.5 °C 51.6 °F /  10.9 °C 29.66in /  1004.3hPa North 8.9mph /  14.3km/h 16.0mph /  25.7km/h 51% 0.00in /  0mm meteobridge W/m2
10:12 71.2 °F /  21.8 °C 52.2 °F /  11.2 °C 29.66in /  1004.3hPa North 12.1mph /  19.5km/h 15.0mph /  24.1km/h 51% 0.00in /  0mm meteobridge W/m2
10:17 71.4 °F /  21.9 °C 51.8 °F /  11 °C 29.66in /  1004.3hPa North 12.1mph /  19.5km/h 15.0mph /  24.1km/h 50% 0.00in /  0mm meteobridge W/m2
10:24 70.9 °F /  21.6 °C 51.8 °F /  11 °C 29.66in /  1004.3hPa NNW 11.0mph /  17.7km/h 14.0mph /  22.5km/h 51% 0.00in /  0mm meteobridge W/m2
10:30 72.1 °F /  22.3 °C 52.5 °F /  11.4 °C 29.66in /  1004.3hPa NNW 11.0mph /  17.7km/h 17.0mph /  27.4km/h 50% 0.00in /  0mm meteobridge W/m2
10:36 72.7 °F /  22.6 °C 52.3 °F /  11.3 °C 29.66in /  1004.3hPa North 10.1mph /  16.3km/h 13.0mph /  20.9km/h 49% 0.00in /  0mm meteobridge W/m2
10:42 72.7 °F /  22.6 °C 52.3 °F /  11.3 °C 29.66in /  1004.3hPa NNW 11.0mph /  17.7km/h 13.0mph /  20.9km/h 49% 0.00in /  0mm meteobridge W/m2
10:48 73.6 °F /  23.1 °C 52.7 °F /  11.5 °C 29.66in /  1004.3hPa NNE 11.0mph /  17.7km/h 15.0mph /  24.1km/h 48% 0.00in /  0mm meteobridge W/m2
10:54 73.8 °F /  23.2 °C 53.4 °F /  11.9 °C 29.66in /  1004.3hPa NNE 12.1mph /  19.5km/h 18.0mph /  29km/h 49% 0.00in /  0mm meteobridge W/m2
11:00 74.1 °F /  23.4 °C 53.8 °F /  12.1 °C 29.66in /  1004.3hPa NNE 8.9mph /  14.3km/h 13.0mph /  20.9km/h 49% 0.00in /  0mm meteobridge W/m2
11:06 74.7 °F /  23.7 °C 53.1 °F /  11.7 °C 29.66in /  1004.3hPa North 8.9mph /  14.3km/h 15.0mph /  24.1km/h 47% 0.00in /  0mm meteobridge W/m2
11:12 74.5 °F /  23.6 °C 53.4 °F /  11.9 °C 29.66in /  1004.3hPa North 6.0mph /  9.7km/h 17.0mph /  27.4km/h 48% 0.00in /  0mm meteobridge W/m2
11:18 74.8 °F /  23.8 °C 53.2 °F /  11.8 °C 29.65in /  1003.9hPa North 4.9mph /  7.9km/h 15.0mph /  24.1km/h 47% 0.00in /  0mm meteobridge W/m2
11:24 75.0 °F /  23.9 °C 53.4 °F /  11.9 °C 29.65in /  1003.9hPa North 6.0mph /  9.7km/h 15.0mph /  24.1km/h 47% 0.00in /  0mm meteobridge W/m2
11:30 75.9 °F /  24.4 °C 53.6 °F /  12 °C 29.65in /  1003.9hPa North 12.1mph /  19.5km/h 13.0mph /  20.9km/h 46% 0.00in /  0mm meteobridge W/m2
11:36 76.1 °F /  24.5 °C 53.8 °F /  12.1 °C 29.65in /  1003.9hPa NNE 8.9mph /  14.3km/h 13.0mph /  20.9km/h 46% 0.00in /  0mm meteobridge W/m2
11:43 76.8 °F /  24.9 °C 53.8 °F /  12.1 °C 29.65in /  1003.9hPa NNE 6.0mph /  9.7km/h 14.0mph /  22.5km/h 45% 0.00in /  0mm meteobridge W/m2
11:49 77.2 °F /  25.1 °C 53.6 °F /  12 °C 29.64in /  1003.6hPa North 8.9mph /  14.3km/h 13.0mph /  20.9km/h 44% 0.00in /  0mm meteobridge W/m2
11:55 76.8 °F /  24.9 °C 53.2 °F /  11.8 °C 29.64in /  1003.6hPa NNW 11.0mph /  17.7km/h 14.0mph /  22.5km/h 44% 0.00in /  0mm meteobridge W/m2
12:01 76.5 °F /  24.7 °C 53.6 °F /  12 °C 29.64in /  1003.6hPa NNE 11.0mph /  17.7km/h 16.0mph /  25.7km/h 45% 0.00in /  0mm meteobridge W/m2
12:07 76.1 °F /  24.5 °C 53.2 °F /  11.8 °C 29.63in /  1003.3hPa North 6.9mph /  11.1km/h 15.0mph /  24.1km/h 45% 0.00in /  0mm meteobridge W/m2
12:13 75.7 °F /  24.3 °C 52.9 °F /  11.6 °C 29.63in /  1003.3hPa North 13.0mph /  20.9km/h 16.0mph /  25.7km/h 45% 0.00in /  0mm meteobridge W/m2
12:19 76.5 °F /  24.7 °C 53.6 °F /  12 °C 29.63in /  1003.3hPa North 10.1mph /  16.3km/h 11.0mph /  17.7km/h 45% 0.00in /  0mm meteobridge W/m2
12:25 77.7 °F /  25.4 °C 53.4 °F /  11.9 °C 29.63in /  1003.3hPa NNW 4.9mph /  7.9km/h 14.0mph /  22.5km/h 43% 0.00in /  0mm meteobridge W/m2
12:31 76.6 °F /  24.8 °C 53.1 °F /  11.7 °C 29.63in /  1003.3hPa NNE 6.9mph /  11.1km/h 10.0mph /  16.1km/h 44% 0.00in /  0mm meteobridge W/m2
12:38 76.6 °F /  24.8 °C 53.1 °F /  11.7 °C 29.62in /  1002.9hPa NNE 13.0mph /  20.9km/h 15.0mph /  24.1km/h 44% 0.00in /  0mm meteobridge W/m2
12:44 77.2 °F /  25.1 °C 52.9 °F /  11.6 °C 29.62in /  1002.9hPa NNW 8.9mph /  14.3km/h 13.0mph /  20.9km/h 43% 0.00in /  0mm meteobridge W/m2
12:50 77.2 °F /  25.1 °C 52.3 °F /  11.3 °C 29.62in /  1002.9hPa NNW 8.9mph /  14.3km/h 11.0mph /  17.7km/h 42% 0.00in /  0mm meteobridge W/m2
12:56 78.1 °F /  25.6 °C 53.1 °F /  11.7 °C 29.62in /  1002.9hPa North 6.0mph /  9.7km/h 10.0mph /  16.1km/h 42% 0.00in /  0mm meteobridge W/m2
13:02 77.0 °F /  25 °C 52.2 °F /  11.2 °C 29.63in /  1003.3hPa NNE 6.0mph /  9.7km/h 11.0mph /  17.7km/h 42% 0.00in /  0mm meteobridge W/m2
13:08 76.5 °F /  24.7 °C 52.3 °F /  11.3 °C 29.62in /  1002.9hPa North 4.9mph /  7.9km/h 7.0mph /  11.3km/h 43% 0.00in /  0mm meteobridge W/m2
13:14 78.3 °F /  25.7 °C 53.2 °F /  11.8 °C 29.62in /  1002.9hPa North 6.9mph /  11.1km/h 14.0mph /  22.5km/h 42% 0.00in /  0mm meteobridge W/m2
13:20 77.7 °F /  25.4 °C 52.2 °F /  11.2 °C 29.62in /  1002.9hPa North 10.1mph /  16.3km/h 12.0mph /  19.3km/h 41% 0.00in /  0mm meteobridge W/m2
13:43 81.3 °F /  27.4 °C 53.2 °F /  11.8 °C 29.61in /  1002.6hPa NNE 13.0mph /  20.9km/h 19.0mph /  30.6km/h 38% 0.00in /  0mm meteobridge W/m2
13:49 81.5 °F /  27.5 °C 52.7 °F /  11.5 °C 29.60in /  1002.3hPa North 4.9mph /  7.9km/h 9.0mph /  14.5km/h 37% 0.00in /  0mm meteobridge W/m2
13:55 80.4 °F /  26.9 °C 52.5 °F /  11.4 °C 29.60in /  1002.3hPa North 8.9mph /  14.3km/h 13.0mph /  20.9km/h 38% 0.00in /  0mm meteobridge W/m2
14:01 79.2 °F /  26.2 °C 52.7 °F /  11.5 °C 29.61in /  1002.6hPa NE 2.9mph /  4.7km/h 3.0mph /  4.8km/h 40% 0.00in /  0mm meteobridge W/m2
14:07 80.6 °F /  27 °C 53.4 °F /  11.9 °C 29.60in /  1002.3hPa NNW 6.0mph /  9.7km/h 6.0mph /  9.7km/h 39% 0.00in /  0mm meteobridge W/m2
14:13 81.0 °F /  27.2 °C 52.9 °F /  11.6 °C 29.60in /  1002.3hPa North 13.0mph /  20.9km/h 17.0mph /  27.4km/h 38% 0.00in /  0mm meteobridge W/m2
14:20 79.0 °F /  26.1 °C 52.5 °F /  11.4 °C 29.60in /  1002.3hPa NNW 10.1mph /  16.3km/h 12.0mph /  19.3km/h 40% 0.00in /  0mm meteobridge W/m2
14:26 78.6 °F /  25.9 °C 52.3 °F /  11.3 °C 29.59in /  1001.9hPa North 8.1mph /  13km/h 8.1mph /  13km/h 40% 0.00in /  0mm meteobridge W/m2
14:32 78.6 °F /  25.9 °C 52.3 °F /  11.3 °C 29.59in /  1001.9hPa NNW 4.9mph /  7.9km/h 5.0mph /  8km/h 40% 0.00in /  0mm meteobridge W/m2
14:38 78.4 °F /  25.8 °C 52.2 °F /  11.2 °C 29.59in /  1001.9hPa NNE 8.1mph /  13km/h 11.0mph /  17.7km/h 40% 0.00in /  0mm meteobridge W/m2
14:44 78.4 °F /  25.8 °C 52.2 °F /  11.2 °C 29.59in /  1001.9hPa NNW 4.9mph /  7.9km/h 12.0mph /  19.3km/h 40% 0.00in /  0mm meteobridge W/m2
14:50 78.6 °F /  25.9 °C 51.6 °F /  10.9 °C 29.58in /  1001.6hPa NW 0.9mph /  1.4km/h 4.0mph /  6.4km/h 39% 0.00in /  0mm meteobridge W/m2
14:56 79.3 °F /  26.3 °C 52.2 °F /  11.2 °C 29.58in /  1001.6hPa Calm   13.0mph /  20.9km/h 39% 0.00in /  0mm meteobridge W/m2
15:02 78.8 °F /  26 °C 51.1 °F /  10.6 °C 29.58in /  1001.6hPa NNE 11.0mph /  17.7km/h 16.0mph /  25.7km/h 38% 0.00in /  0mm meteobridge W/m2
15:09 78.4 °F /  25.8 °C 51.4 °F /  10.8 °C 29.58in /  1001.6hPa Calm   2.0mph /  3.2km/h 39% 0.00in /  0mm meteobridge W/m2
15:14 78.6 °F /  25.9 °C 50.9 °F /  10.5 °C 29.58in /  1001.6hPa NE 4.9mph /  7.9km/h 7.0mph /  11.3km/h 38% 0.00in /  0mm meteobridge W/m2
15:21 78.8 °F /  26 °C 51.8 °F /  11 °C 29.58in /  1001.6hPa North 12.1mph /  19.5km/h 13.0mph /  20.9km/h 39% 0.00in /  0mm meteobridge W/m2
15:27 79.0 °F /  26.1 °C 52.0 °F /  11.1 °C 29.57in /  1001.2hPa WNW 11.0mph /  17.7km/h 13.0mph /  20.9km/h 39% 0.00in /  0mm meteobridge W/m2
15:33 80.2 °F /  26.8 °C 51.6 °F /  10.9 °C 29.57in /  1001.2hPa North 6.0mph /  9.7km/h 9.0mph /  14.5km/h 37% 0.00in /  0mm meteobridge W/m2
15:39 81.3 °F /  27.4 °C 51.8 °F /  11 °C 29.57in /  1001.2hPa North 4.9mph /  7.9km/h 11.0mph /  17.7km/h 36% 0.00in /  0mm meteobridge W/m2
15:45 80.8 °F /  27.1 °C 52.2 °F /  11.2 °C 29.57in /  1001.2hPa North 2.9mph /  4.7km/h 12.0mph /  19.3km/h 37% 0.00in /  0mm meteobridge W/m2
15:51 80.1 °F /  26.7 °C 51.4 °F /  10.8 °C 29.56in /  1000.9hPa NNE 4.9mph /  7.9km/h 14.0mph /  22.5km/h 37% 0.00in /  0mm meteobridge W/m2
15:58 79.3 °F /  26.3 °C 51.4 °F /  10.8 °C 29.57in /  1001.2hPa North 12.1mph /  19.5km/h 16.0mph /  25.7km/h 38% 0.00in /  0mm meteobridge W/m2
16:04 79.2 °F /  26.2 °C 51.4 °F /  10.8 °C 29.56in /  1000.9hPa Calm   9.0mph /  14.5km/h 38% 0.00in /  0mm meteobridge W/m2
16:10 79.3 °F /  26.3 °C 52.2 °F /  11.2 °C 29.56in /  1000.9hPa NNE 2.0mph /  3.2km/h 6.0mph /  9.7km/h 39% 0.00in /  0mm meteobridge W/m2
16:28 81.1 °F /  27.3 °C 52.3 °F /  11.3 °C 29.55in /  1000.6hPa NNW 6.9mph /  11.1km/h 10.0mph /  16.1km/h 37% 0.00in /  0mm meteobridge W/m2
16:34 81.1 °F /  27.3 °C 52.3 °F /  11.3 °C 29.55in /  1000.6hPa NNE 6.0mph /  9.7km/h 24.0mph /  38.6km/h 37% 0.00in /  0mm meteobridge W/m2
16:40 81.7 °F /  27.6 °C 52.9 °F /  11.6 °C 29.54in /  1000.2hPa NW 2.0mph /  3.2km/h 4.0mph /  6.4km/h 37% 0.00in /  0mm meteobridge W/m2
16:46 81.9 °F /  27.7 °C 53.1 °F /  11.7 °C 29.54in /  1000.2hPa North 10.1mph /  16.3km/h 12.0mph /  19.3km/h 37% 0.00in /  0mm meteobridge W/m2
16:52 81.5 °F /  27.5 °C 52.0 °F /  11.1 °C 29.53in /  999.9hPa East 0.9mph /  1.4km/h 12.0mph /  19.3km/h 36% 0.00in /  0mm meteobridge W/m2
16:58 81.1 °F /  27.3 °C 52.3 °F /  11.3 °C 29.53in /  999.9hPa North 10.1mph /  16.3km/h 20.0mph /  32.2km/h 37% 0.00in /  0mm meteobridge W/m2
17:04 80.1 °F /  26.7 °C 52.2 °F /  11.2 °C 29.54in /  1000.2hPa NNW 2.9mph /  4.7km/h 8.0mph /  12.9km/h 38% 0.00in /  0mm meteobridge W/m2
17:11 79.7 °F /  26.5 °C 51.8 °F /  11 °C 29.54in /  1000.2hPa NNW 0.9mph /  1.4km/h 15.0mph /  24.1km/h 38% 0.00in /  0mm meteobridge W/m2
17:17 79.9 °F /  26.6 °C 52.0 °F /  11.1 °C 29.53in /  999.9hPa North 4.0mph /  6.4km/h 7.0mph /  11.3km/h 38% 0.00in /  0mm meteobridge W/m2
17:23 79.9 °F /  26.6 °C 52.0 °F /  11.1 °C 29.53in /  999.9hPa NNW 12.1mph /  19.5km/h 17.0mph /  27.4km/h 38% 0.00in /  0mm meteobridge W/m2
17:29 80.4 °F /  26.9 °C 52.5 °F /  11.4 °C 29.53in /  999.9hPa SW 2.9mph /  4.7km/h 6.0mph /  9.7km/h 38% 0.00in /  0mm meteobridge W/m2
17:35 81.3 °F /  27.4 °C 52.5 °F /  11.4 °C 29.52in /  999.5hPa WNW 2.9mph /  4.7km/h 6.0mph /  9.7km/h 37% 0.00in /  0mm meteobridge W/m2
17:41 82.2 °F /  27.9 °C 53.4 °F /  11.9 °C 29.53in /  999.9hPa West 4.0mph /  6.4km/h 18.0mph /  29km/h 37% 0.00in /  0mm meteobridge W/m2
17:47 81.1 °F /  27.3 °C 52.3 °F /  11.3 °C 29.52in /  999.5hPa West 4.0mph /  6.4km/h 15.0mph /  24.1km/h 37% 0.00in /  0mm meteobridge W/m2
17:53 80.8 °F /  27.1 °C 52.2 °F /  11.2 °C 29.53in /  999.9hPa WNW 4.0mph /  6.4km/h 13.0mph /  20.9km/h 37% 0.00in /  0mm meteobridge W/m2
17:59 81.0 °F /  27.2 °C 52.2 °F /  11.2 °C 29.53in /  999.9hPa North 13.0mph /  20.9km/h 21.0mph /  33.8km/h 37% 0.00in /  0mm meteobridge W/m2
18:06 80.2 °F /  26.8 °C 51.6 °F /  10.9 °C 29.53in /  999.9hPa NNW 12.1mph /  19.5km/h 13.0mph /  20.9km/h 37% 0.00in /  0mm meteobridge W/m2
18:12 80.2 °F /  26.8 °C 52.3 °F /  11.3 °C 29.53in /  999.9hPa NW 2.0mph /  3.2km/h 4.0mph /  6.4km/h 38% 0.00in /  0mm meteobridge W/m2
18:18 79.9 °F /  26.6 °C 51.3 °F /  10.7 °C 29.52in /  999.5hPa NNW 4.9mph /  7.9km/h 18.0mph /  29km/h 37% 0.00in /  0mm meteobridge W/m2
18:24 79.3 °F /  26.3 °C 51.4 °F /  10.8 °C 29.53in /  999.9hPa SSE 2.0mph /  3.2km/h 4.0mph /  6.4km/h 38% 0.00in /  0mm meteobridge W/m2
18:30 78.4 °F /  25.8 °C 51.4 °F /  10.8 °C 29.53in /  999.9hPa SW 4.0mph /  6.4km/h 9.0mph /  14.5km/h 39% 0.00in /  0mm meteobridge W/m2
18:36 78.4 °F /  25.8 °C 51.4 °F /  10.8 °C 29.52in /  999.5hPa SW 4.0mph /  6.4km/h 4.0mph /  6.4km/h 39% 0.00in /  0mm meteobridge W/m2
18:43 78.4 °F /  25.8 °C 51.4 °F /  10.8 °C 29.52in /  999.5hPa SW 4.0mph /  6.4km/h -999.0mph /  -1607.7km/h 39% 0.00in /  0mm meteobridge W/m2
Regenstein, Windhoek, Namibia
Compliments of Weather Underground - 2.5 mb